Time;durP1;ratioP1;P1;durP2;ratioP2;P2;SDS_P1;SDS_P2;PMS_P1;PMS_P2;Temp;Humidity;BMP_temperature;BMP_pressure;BME280_temperature;BME280_humidity;BME280_pressure;Samples;Min_cycle;Max_cycle;Signal;HPM_P1;HPM_P2
2022/03/23 00:01:34;;;;;;;;;;;;;;;12.71;25.22;101157.66;4489016;31;32445;-62
2022/03/23 00:04:05;;;;;;;;;;;;;;;13.05;25.00;101161.81;4490879;31;33099;-62
2022/03/23 00:06:35;;;;;;;;;;;;;;;13.18;24.90;101152.97;4485368;31;33053;-61
2022/03/23 00:09:05;;;;;;;;;;;;;;;13.07;24.51;101144.72;4486548;31;34227;-63
2022/03/23 00:11:36;;;;;;;;;;;;;;;12.72;25.44;101140.59;4481647;31;32247;-61
2022/03/23 00:14:06;;;;;;;;;;;;;;;12.96;24.96;101142.69;4486385;31;35251;-61
2022/03/23 00:16:37;;;;;;;;;;;;;;;12.93;25.16;101149.13;4484899;31;34667;-62
2022/03/23 00:19:09;;;;;;;;;;;;;;;12.39;26.00;101139.94;4488695;31;33220;-60
2022/03/23 00:21:40;;;;;;;;;;;;;;;12.65;25.92;101141.03;4486980;31;33609;-62
2022/03/23 00:24:08;;;;;;;;;;;;;;;12.82;25.41;101140.88;4500029;31;34068;-63
2022/03/23 00:26:36;;;;;;;;;;;;;;;13.20;24.36;101137.63;4492137;31;34489;-61
2022/03/23 00:29:04;;;;;;;;;;;;;;;13.05;24.88;101134.91;4494213;31;34636;-61
2022/03/23 00:31:34;;;;;;;;;;;;;;;13.00;24.98;101131.69;4490915;31;33038;-61
2022/03/23 00:34:02;;;;;;;;;;;;;;;12.85;24.75;101129.94;4493575;31;33692;-61
2022/03/23 00:36:30;;;;;;;;;;;;;;;13.09;24.26;101123.97;4496079;31;34361;-61
2022/03/23 00:38:58;;;;;;;;;;;;;;;12.91;24.78;101129.56;4494573;31;33549;-63
2022/03/23 00:41:25;;;;;;;;;;;;;;;12.66;25.02;101129.34;4492553;31;34408;-62
2022/03/23 00:43:54;;;;;;;;;;;;;;;12.55;25.35;101124.63;4485153;31;34988;-60
2022/03/23 00:46:24;;;;;;;;;;;;;;;12.57;25.61;101118.19;4495973;31;32956;-60
2022/03/23 00:48:54;;;;;;;;;;;;;;;12.67;25.21;101120.31;4486563;31;33606;-60
2022/03/23 00:51:22;;;;;;;;;;;;;;;12.93;24.48;101124.06;4486647;31;33654;-61
2022/03/23 00:53:50;;;;;;;;;;;;;;;13.11;24.08;101127.44;4488813;31;32843;-62
2022/03/23 00:56:20;;;;;;;;;;;;;;;13.15;24.05;101120.91;4488231;31;33175;-61
2022/03/23 00:58:50;;;;;;;;;;;;;;;13.00;24.73;101120.94;4490794;31;34472;-62
2022/03/23 01:01:19;;;;;;;;;;;;;;;12.93;24.17;101114.19;4487280;31;33519;-60
2022/03/23 01:03:49;;;;;;;;;;;;;;;12.51;24.61;101117.72;4487695;31;33859;-61
2022/03/23 01:06:19;;;;;;;;;;;;;;;12.20;24.72;101111.53;4488106;31;32711;-60
2022/03/23 01:08:48;;;;;;;;;;;;;;;12.23;25.23;101110.47;4485778;31;34281;-62
2022/03/23 01:11:17;;;;;;;;;;;;;;;12.52;24.40;101108.69;4490504;31;32204;-60
2022/03/23 01:13:45;;;;;;;;;;;;;;;12.70;23.51;101114.75;4484553;31;34941;-59
2022/03/23 01:16:12;;;;;;;;;;;;;;;12.76;23.90;101111.69;4482776;31;34377;-60
2022/03/23 01:18:40;;;;;;;;;;;;;;;12.88;23.38;101118.16;4494927;31;35189;-62
2022/03/23 01:21:10;;;;;;;;;;;;;;;12.31;25.15;101116.25;4486296;31;33706;-61
2022/03/23 01:23:38;;;;;;;;;;;;;;;12.66;23.88;101111.41;4485962;31;34915;-62
2022/03/23 01:26:05;;;;;;;;;;;;;;;12.19;24.59;101101.72;4484398;31;35428;-60
2022/03/23 01:28:33;;;;;;;;;;;;;;;12.49;24.44;101107.09;4482837;31;34541;-60
2022/03/23 01:31:02;;;;;;;;;;;;;;;12.88;23.60;101100.19;4483250;31;34699;-59
2022/03/23 01:33:31;;;;;;;;;;;;;;;12.93;23.90;101097.19;4487245;31;33892;-61
2022/03/23 01:35:59;;;;;;;;;;;;;;;12.57;24.34;101099.41;4485392;31;33885;-61
2022/03/23 01:38:27;;;;;;;;;;;;;;;12.98;25.15;101092.41;4484541;31;35184;-62
2022/03/23 01:40:57;;;;;;;;;;;;;;;13.19;22.57;101096.44;4484306;31;33209;-61
2022/03/23 01:43:28;;;;;;;;;;;;;;;13.38;23.13;101084.50;4490634;31;35053;-62
2022/03/23 01:45:57;;;;;;;;;;;;;;;13.42;22.81;101089.59;4490342;31;36897;-61
2022/03/23 01:48:28;;;;;;;;;;;;;;;13.32;22.78;101087.56;4484252;31;33272;-61
2022/03/23 01:50:58;;;;;;;;;;;;;;;12.95;22.83;101084.53;4486220;31;33282;-62
2022/03/23 01:53:27;;;;;;;;;;;;;;;13.19;23.22;101088.37;4481968;31;32784;-62
2022/03/23 01:55:55;;;;;;;;;;;;;;;13.29;23.19;101094.03;4492146;31;34962;-62
2022/03/23 01:58:26;;;;;;;;;;;;;;;13.32;22.81;101087.56;4469865;31;34197;-61
2022/03/23 02:00:55;;;;;;;;;;;;;;;12.63;23.53;101089.25;4490052;31;33629;-62
2022/03/23 02:03:26;;;;;;;;;;;;;;;13.37;22.66;101090.84;4487613;31;36221;-62
2022/03/23 02:05:54;;;;;;;;;;;;;;;13.18;22.32;101092.00;4483390;31;34122;-61
2022/03/23 02:08:25;;;;;;;;;;;;;;;13.48;22.12;101091.00;4483614;31;33280;-61
2022/03/23 02:10:55;;;;;;;;;;;;;;;13.52;21.93;101089.84;4481742;31;34764;-61
2022/03/23 02:13:27;;;;;;;;;;;;;;;13.53;21.76;101094.25;4481747;31;33734;-62
2022/03/23 02:15:58;;;;;;;;;;;;;;;13.55;21.68;101089.66;4490872;31;34438;-61
2022/03/23 02:18:27;;;;;;;;;;;;;;;13.58;22.24;101089.44;4497993;31;34595;-60
2022/03/23 02:20:57;;;;;;;;;;;;;;;13.47;22.33;101084.75;4491477;31;34512;-61
2022/03/23 02:23:25;;;;;;;;;;;;;;;13.60;21.94;101089.34;4486339;31;32968;-60
2022/03/23 02:25:53;;;;;;;;;;;;;;;13.71;22.22;101093.06;4486766;31;33094;-61
2022/03/23 02:28:27;;;;;;;;;;;;;;;13.74;22.24;101083.91;4477088;31;34886;-60
2022/03/23 02:30:55;;;;;;;;;;;;;;;13.73;21.94;101096.47;4486590;31;32301;-60
2022/03/23 02:33:23;;;;;;;;;;;;;;;13.70;21.76;101088.59;4482480;31;32872;-60
2022/03/23 02:35:52;;;;;;;;;;;;;;;12.88;23.56;101092.13;4485797;31;33145;-61
2022/03/23 02:38:22;;;;;;;;;;;;;;;13.07;22.79;101093.66;4484203;31;34244;-60
2022/03/23 02:40:52;;;;;;;;;;;;;;;13.31;23.33;101093.94;4483633;31;33560;-60
2022/03/23 02:43:22;;;;;;;;;;;;;;;13.62;22.32;101092.78;4470712;31;34334;-59
2022/03/23 02:45:51;;;;;;;;;;;;;;;13.32;23.13;101090.28;4483905;31;35383;-60
2022/03/23 02:48:20;;;;;;;;;;;;;;;13.78;22.41;101080.03;4486030;31;34953;-61
2022/03/23 02:50:51;;;;;;;;;;;;;;;13.94;21.94;101085.25;4484990;31;32226;-62
2022/03/23 03:02:14;;;;;;;;;;;;;;;13.56;22.08;101095.88;4483207;31;33666;-61
2022/03/23 03:04:43;;;;;;;;;;;;;;;13.44;22.29;101087.66;4466802;31;34140;-61
2022/03/23 03:07:12;;;;;;;;;;;;;;;13.50;22.04;101087.25;4488438;31;34293;-60
2022/03/23 03:09:42;;;;;;;;;;;;;;;13.57;22.14;101076.09;4486828;31;34016;-60
2022/03/23 03:12:12;;;;;;;;;;;;;;;13.51;22.24;101083.63;4487280;31;32266;-61
2022/03/23 03:14:43;;;;;;;;;;;;;;;13.78;21.96;101088.13;4489624;31;32873;-61
2022/03/23 03:17:11;;;;;;;;;;;;;;;13.77;21.90;101089.06;4484877;31;33166;-60
2022/03/23 03:19:43;;;;;;;;;;;;;;;13.78;21.93;101093.50;4479001;31;35611;-60
2022/03/23 03:22:17;;;;;;;;;;;;;;;13.80;21.88;101088.84;4483625;31;32282;-60
2022/03/23 03:24:46;;;;;;;;;;;;;;;13.63;22.07;101089.12;4485852;31;34059;-60
2022/03/23 03:27:15;;;;;;;;;;;;;;;13.66;22.06;101097.00;4481211;31;35401;-59
2022/03/23 03:29:44;;;;;;;;;;;;;;;12.90;22.09;101087.50;4484469;31;34095;-60
2022/03/23 03:32:13;;;;;;;;;;;;;;;13.56;22.39;101082.44;4487662;31;33623;-61
2022/03/23 03:34:44;;;;;;;;;;;;;;;13.64;22.39;101085.47;4485811;31;33501;-61
2022/03/23 03:37:12;;;;;;;;;;;;;;;13.68;22.21;101087.87;4486130;31;34229;-60
2022/03/23 03:39:41;;;;;;;;;;;;;;;13.59;22.49;101076.84;4489734;31;33192;-61
2022/03/23 03:42:09;;;;;;;;;;;;;;;13.16;22.80;101079.59;4485688;31;34688;-61
2022/03/23 03:44:38;;;;;;;;;;;;;;;13.38;22.85;101071.03;4486174;31;33641;-61
2022/03/23 03:47:07;;;;;;;;;;;;;;;13.34;22.57;101072.22;4481186;31;34942;-62
2022/03/23 03:49:38;;;;;;;;;;;;;;;13.42;22.50;101077.97;4484466;31;33866;-61
2022/03/23 03:52:07;;;;;;;;;;;;;;;13.40;22.53;101074.50;4484594;31;32340;-62
2022/03/23 03:54:36;;;;;;;;;;;;;;;13.42;22.13;101069.91;4484642;31;32842;-61
2022/03/23 03:57:05;;;;;;;;;;;;;;;13.62;22.75;101080.19;4483535;31;34488;-61
2022/03/23 03:59:35;;;;;;;;;;;;;;;13.58;22.68;101078.69;4489773;31;33000;-62
2022/03/23 04:02:04;;;;;;;;;;;;;;;13.58;22.82;101078.69;4481099;31;33367;-62
2022/03/23 04:04:33;;;;;;;;;;;;;;;13.47;22.69;101082.06;4484528;31;32562;-61
2022/03/23 04:07:05;;;;;;;;;;;;;;;13.84;22.32;101074.25;4488296;31;34426;-60
2022/03/23 04:09:43;;;;;;;;;;;;;;;13.90;22.24;101084.59;4485872;31;33989;-62
2022/03/23 04:12:12;;;;;;;;;;;;;;;13.99;22.96;101080.41;4482703;31;33449;-60
2022/03/23 04:14:42;;;;;;;;;;;;;;;13.91;22.40;101077.37;4496289;31;33283;-61
2022/03/23 04:17:11;;;;;;;;;;;;;;;13.51;22.78;101082.72;4486679;31;33995;-61
2022/03/23 04:19:39;;;;;;;;;;;;;;;13.55;22.70;101078.00;4490386;31;33052;-62
2022/03/23 04:22:09;;;;;;;;;;;;;;;13.75;22.62;101081.09;4483783;31;34308;-61
2022/03/23 04:24:38;;;;;;;;;;;;;;;13.68;22.65;101085.19;4490180;31;34395;-65
2022/03/23 04:27:08;;;;;;;;;;;;;;;13.77;22.43;101074.75;4494399;31;33658;-61
2022/03/23 04:29:36;;;;;;;;;;;;;;;12.86;23.27;101079.75;4485917;31;34323;-61
2022/03/23 04:32:05;;;;;;;;;;;;;;;11.83;24.80;101073.41;4479277;31;33334;-61
2022/03/23 04:34:35;;;;;;;;;;;;;;;12.55;24.33;101077.16;4484720;31;35375;-63
2022/03/23 04:37:03;;;;;;;;;;;;;;;12.52;24.64;101082.72;4484908;31;34318;-61
2022/03/23 04:39:32;;;;;;;;;;;;;;;11.64;25.51;101076.31;4485217;31;33115;-62
2022/03/23 04:42:02;;;;;;;;;;;;;;;11.58;25.00;101075.78;4488267;31;33541;-61
2022/03/23 04:44:31;;;;;;;;;;;;;;;12.24;24.62;101077.31;4486546;31;33285;-61
2022/03/23 04:47:01;;;;;;;;;;;;;;;11.65;25.40;101079.84;4488586;31;34339;-61
2022/03/23 04:49:30;;;;;;;;;;;;;;;12.23;24.11;101086.31;4483025;31;34858;-62
2022/03/23 04:51:59;;;;;;;;;;;;;;;12.10;24.01;101084.37;4481397;31;33913;-62
2022/03/23 04:54:33;;;;;;;;;;;;;;;12.90;23.52;101087.50;4485834;31;33967;-61
2022/03/23 04:57:01;;;;;;;;;;;;;;;12.79;23.53;101090.87;4483741;31;33181;-63
2022/03/23 04:59:30;;;;;;;;;;;;;;;12.96;24.19;101095.19;4488606;31;34161;-62
2022/03/23 05:01:58;;;;;;;;;;;;;;;12.97;23.22;101088.88;4483124;31;34451;-62
2022/03/23 05:04:27;;;;;;;;;;;;;;;13.10;23.28;101097.00;4492017;31;34283;-61
2022/03/23 05:06:55;;;;;;;;;;;;;;;12.95;23.96;101096.16;4486618;31;34329;-61
2022/03/23 05:09:24;;;;;;;;;;;;;;;12.89;23.59;101093.00;4481851;31;34348;-62
2022/03/23 05:11:52;;;;;;;;;;;;;;;13.33;23.46;101095.56;4482103;31;32243;-62
2022/03/23 05:14:21;;;;;;;;;;;;;;;13.84;23.47;101094.94;4485514;31;34323;-62
2022/03/23 05:16:50;;;;;;;;;;;;;;;14.07;22.48;101096.91;4485097;31;34045;-61
2022/03/23 05:19:19;;;;;;;;;;;;;;;14.49;22.23;101103.00;4480849;31;35093;-63
2022/03/23 05:21:47;;;;;;;;;;;;;;;14.77;21.66;101107.38;4491127;31;34282;-62
2022/03/23 05:24:15;;;;;;;;;;;;;;;14.93;21.93;101104.44;4483213;31;32987;-62
2022/03/23 05:26:44;;;;;;;;;;;;;;;15.02;21.68;101114.53;4474145;31;35167;-63
2022/03/23 05:29:12;;;;;;;;;;;;;;;15.28;21.38;101112.69;4482561;31;35340;-62
2022/03/23 05:31:40;;;;;;;;;;;;;;;15.54;21.09;101112.63;4484220;31;33547;-64
2022/03/23 05:34:09;;;;;;;;;;;;;;;15.58;21.10;101112.25;4491950;31;34186;-61
2022/03/23 05:36:38;;;;;;;;;;;;;;;15.42;21.33;101108.13;4482815;31;34131;-62
2022/03/23 05:39:05;;;;;;;;;;;;;;;15.64;20.80;101107.41;4486783;31;33943;-62
2022/03/23 05:41:37;;;;;;;;;;;;;;;15.87;20.71;101111.09;4488002;31;31889;-66
2022/03/23 05:44:09;;;;;;;;;;;;;;;15.99;20.53;101104.78;4488575;31;34554;-62
2022/03/23 05:46:38;;;;;;;;;;;;;;;15.52;21.65;101104.63;4480371;31;33217;-63
2022/03/23 05:49:08;;;;;;;;;;;;;;;15.57;21.44;101098.91;4484369;31;35233;-65
2022/03/23 05:51:36;;;;;;;;;;;;;;;15.41;21.93;101104.56;4483883;31;32428;-63
2022/03/23 05:54:06;;;;;;;;;;;;;;;15.26;22.20;101100.28;4487035;31;34461;-63
2022/03/23 05:56:34;;;;;;;;;;;;;;;15.00;22.74;101104.87;4480925;31;35236;-63
2022/03/23 05:59:02;;;;;;;;;;;;;;;14.96;22.30;101096.12;4485108;31;34673;-63
2022/03/23 06:01:32;;;;;;;;;;;;;;;15.00;22.35;101100.34;4481616;31;33542;-63
2022/03/23 06:04:02;;;;;;;;;;;;;;;14.65;22.72;101109.09;4482046;31;32711;-62
2022/03/23 06:06:31;;;;;;;;;;;;;;;14.23;22.65;101109.34;4471707;32;34316;-65
2022/03/23 06:09:00;;;;;;;;;;;;;;;14.29;22.56;101117.00;4487400;31;34741;-62
2022/03/23 06:11:29;;;;;;;;;;;;;;;14.25;23.20;101108.25;4479986;31;34413;-64
2022/03/23 06:13:58;;;;;;;;;;;;;;;13.69;23.80;101115.63;4487759;31;33932;-63
2022/03/23 06:16:26;;;;;;;;;;;;;;;14.29;22.89;101108.94;4484835;31;33175;-63
2022/03/23 06:18:56;;;;;;;;;;;;;;;14.26;22.63;101104.59;4491875;31;34910;-62
2022/03/23 06:21:25;;;;;;;;;;;;;;;14.33;22.71;101105.91;4483330;31;33547;-61
2022/03/23 06:23:55;;;;;;;;;;;;;;;13.97;23.16;101106.59;4481138;31;34263;-62
2022/03/23 06:26:25;;;;;;;;;;;;;;;14.31;22.54;101105.13;4483744;31;34021;-65
2022/03/23 06:28:54;;;;;;;;;;;;;;;14.02;23.24;101111.66;4485338;31;34841;-62
2022/03/23 06:31:23;;;;;;;;;;;;;;;14.15;23.03;101116.09;4488377;31;33537;-63
2022/03/23 06:33:51;;;;;;;;;;;;;;;13.66;23.63;101108.63;4488974;31;33885;-62
2022/03/23 06:36:19;;;;;;;;;;;;;;;14.23;22.88;101112.03;4480521;31;37324;-64
2022/03/23 06:38:50;;;;;;;;;;;;;;;14.24;22.67;101105.66;4486323;31;33073;-61
2022/03/23 06:41:18;;;;;;;;;;;;;;;15.24;21.90;101108.47;4485325;31;33383;-66
2022/03/23 06:43:47;;;;;;;;;;;;;;;16.28;20.70;101116.06;4479007;31;34272;-62
2022/03/23 06:46:15;;;;;;;;;;;;;;;16.72;20.13;101115.25;4481088;31;35494;-63
2022/03/23 06:48:46;;;;;;;;;;;;;;;15.59;21.02;101116.66;4486480;31;33143;-63
2022/03/23 06:51:14;;;;;;;;;;;;;;;15.37;21.22;101120.09;4483425;31;33005;-63
2022/03/23 06:53:42;;;;;;;;;;;;;;;14.97;21.95;101121.25;4480964;31;33786;-63
2022/03/23 06:56:10;;;;;;;;;;;;;;;14.40;22.61;101114.41;4484881;31;35376;-63
2022/03/23 06:58:38;;;;;;;;;;;;;;;14.49;22.16;101121.00;4493379;31;33016;-64
2022/03/23 07:01:07;;;;;;;;;;;;;;;14.24;22.83;101119.13;4486513;31;34379;-63
2022/03/23 07:03:35;;;;;;;;;;;;;;;14.52;22.95;101116.31;4484589;31;34774;-64
2022/03/23 07:06:04;;;;;;;;;;;;;;;14.30;22.91;101116.88;4488443;31;34473;-63
2022/03/23 07:11:19;;;;;;;;;;;;;;;15.21;21.78;101116.78;4495283;31;33516;-63
2022/03/23 07:13:48;;;;;;;;;;;;;;;15.46;22.31;101128.50;4484652;31;34953;-63
2022/03/23 07:16:16;;;;;;;;;;;;;;;15.47;21.31;101120.25;4485062;31;35348;-63
2022/03/23 07:18:45;;;;;;;;;;;;;;;15.46;21.80;101126.66;4496694;31;34309;-63
2022/03/23 07:21:13;;;;;;;;;;;;;;;15.56;21.42;101132.22;4489924;31;32561;-63
2022/03/23 07:23:42;;;;;;;;;;;;;;;15.54;21.29;101129.66;4486708;31;34573;-63
2022/03/23 07:26:11;;;;;;;;;;;;;;;15.03;22.04;101121.69;4485521;31;35518;-63
2022/03/23 07:28:39;;;;;;;;;;;;;;;15.93;21.10;101124.13;4491667;31;34508;-63
2022/03/23 07:31:08;;;;;;;;;;;;;;;15.86;21.38;101115.63;4489027;31;34497;-64
2022/03/23 07:33:37;;;;;;;;;;;;;;;15.51;21.01;101123.62;4496291;31;35704;-63
2022/03/23 07:36:05;;;;;;;;;;;;;;;15.64;21.22;101119.03;4485989;31;35472;-64
2022/03/23 07:38:33;;;;;;;;;;;;;;;15.05;22.10;101121.56;4487246;31;32671;-64
2022/03/23 07:41:02;;;;;;;;;;;;;;;14.91;22.41;101119.84;4448337;31;1330315;-62
2022/03/23 07:43:31;;;;;;;;;;;;;;;15.23;21.99;101119.38;4487452;31;32690;-63
2022/03/23 07:45:59;;;;;;;;;;;;;;;15.55;21.49;101119.72;4486863;31;35424;-63
2022/03/23 07:48:29;;;;;;;;;;;;;;;15.94;21.26;101115.91;4488053;31;35376;-61
2022/03/23 07:50:58;;;;;;;;;;;;;;;15.71;21.07;101114.94;4482791;31;34207;-63
2022/03/23 07:53:31;;;;;;;;;;;;;;;17.06;20.32;101111.78;4488081;31;34867;-62
2022/03/23 07:55:59;;;;;;;;;;;;;;;17.71;19.20;101108.22;4489489;31;33179;-63
2022/03/23 07:58:29;;;;;;;;;;;;;;;20.66;16.63;101110.00;4492506;31;34246;-64
2022/03/23 08:00:59;;;;;;;;;;;;;;;22.45;14.89;101108.53;4485297;31;33318;-62
2022/03/23 08:03:27;;;;;;;;;;;;;;;23.02;14.13;101100.75;4489191;31;34646;-64
2022/03/23 08:05:57;;;;;;;;;;;;;;;23.50;13.79;101103.84;4494720;31;34878;-64
2022/03/23 08:08:29;;;;;;;;;;;;;;;22.66;14.07;101102.69;4492257;31;35263;-64
2022/03/23 08:10:58;;;;;;;;;;;;;;;23.22;14.23;101106.81;4481371;31;34093;-64
2022/03/23 08:13:26;;;;;;;;;;;;;;;22.70;14.26;101103.25;4479470;31;33884;-64
2022/03/23 08:15:56;;;;;;;;;;;;;;;22.19;14.80;101099.47;4489300;31;33602;-64
2022/03/23 08:18:25;;;;;;;;;;;;;;;22.29;14.82;101102.94;4489799;31;33975;-64
2022/03/23 08:20:56;;;;;;;;;;;;;;;22.00;15.17;101109.47;4485735;31;32918;-64
2022/03/23 08:23:26;;;;;;;;;;;;;;;21.07;15.93;101107.87;4483250;31;34225;-64
2022/03/23 08:25:55;;;;;;;;;;;;;;;20.44;16.19;101109.28;4483013;31;35042;-64
2022/03/23 08:28:24;;;;;;;;;;;;;;;19.46;17.38;101110.22;4482219;31;34137;-64
2022/03/23 08:30:53;;;;;;;;;;;;;;;20.36;16.97;101105.59;4484879;31;33536;-63
2022/03/23 08:33:25;;;;;;;;;;;;;;;18.74;18.08;101111.19;4484753;31;33910;-64
2022/03/23 08:35:54;;;;;;;;;;;;;;;19.54;17.52;101104.09;4483362;31;34037;-63
2022/03/23 08:38:23;;;;;;;;;;;;;;;19.90;17.32;101104.44;4484671;31;34423;-65
2022/03/23 08:40:54;;;;;;;;;;;;;;;19.35;17.70;101106.75;4483130;31;32230;-63
2022/03/23 08:43:23;;;;;;;;;;;;;;;19.33;17.85;101108.75;4483665;31;34246;-63
2022/03/23 08:45:53;;;;;;;;;;;;;;;19.48;18.00;101112.78;4489656;31;34799;-63
2022/03/23 08:48:24;;;;;;;;;;;;;;;18.84;18.23;101111.25;4487437;31;34707;-64
2022/03/23 08:51:02;;;;;;;;;;;;;;;18.49;18.64;101107.03;4486483;31;32628;-64
2022/03/23 08:53:31;;;;;;;;;;;;;;;18.62;18.88;101112.25;4485282;31;33785;-62
2022/03/23 08:55:59;;;;;;;;;;;;;;;18.21;18.79;101107.69;4487723;31;34163;-63
2022/03/23 08:58:27;;;;;;;;;;;;;;;18.99;18.45;101109.91;4485886;31;34390;-62
2022/03/23 09:00:56;;;;;;;;;;;;;;;19.07;18.06;101101.09;4484770;31;32867;-63
2022/03/23 09:03:26;;;;;;;;;;;;;;;18.95;17.85;101105.75;4487985;31;35084;-62
2022/03/23 09:05:55;;;;;;;;;;;;;;;19.63;17.22;101103.25;4481880;31;35947;-62
2022/03/23 09:08:24;;;;;;;;;;;;;;;19.62;17.29;101101.53;4481859;31;33913;-63
2022/03/23 09:10:53;;;;;;;;;;;;;;;19.95;17.02;101097.59;4482624;31;34553;-63
2022/03/23 09:13:22;;;;;;;;;;;;;;;20.29;17.39;101094.44;4479785;31;33757;-63
2022/03/23 09:15:51;;;;;;;;;;;;;;;19.93;17.44;101091.44;4482060;31;34870;-63
2022/03/23 09:18:19;;;;;;;;;;;;;;;20.75;16.37;101091.94;4484582;31;35809;-63
2022/03/23 09:20:48;;;;;;;;;;;;;;;20.42;16.81;101091.41;4490018;31;33408;-63
2022/03/23 09:23:16;;;;;;;;;;;;;;;21.28;16.48;101092.13;4483019;31;35305;-63
2022/03/23 09:25:45;;;;;;;;;;;;;;;21.41;16.03;101089.06;4484666;31;34242;-63
2022/03/23 09:28:13;;;;;;;;;;;;;;;21.26;16.26;101086.00;4483999;31;34711;-64
2022/03/23 09:30:42;;;;;;;;;;;;;;;21.37;15.93;101090.41;4481707;31;33393;-63
2022/03/23 09:33:11;;;;;;;;;;;;;;;20.67;16.51;101093.53;4494548;31;34187;-63
2022/03/23 09:35:42;;;;;;;;;;;;;;;21.12;16.12;101090.09;4486670;31;33119;-63
2022/03/23 09:38:16;;;;;;;;;;;;;;;21.78;15.81;101088.97;4484632;31;33233;-63
2022/03/23 09:40:46;;;;;;;;;;;;;;;22.00;15.25;101082.22;4485892;31;32620;-62
2022/03/23 09:43:15;;;;;;;;;;;;;;;21.34;15.47;101083.34;4483734;31;35996;-63
2022/03/23 09:48:13;;;;;;;;;;;;;;;21.46;15.56;101077.75;4485657;31;33095;-64
2022/03/23 09:50:43;;;;;;;;;;;;;;;22.14;15.80;101074.47;4490651;31;33618;-63
2022/03/23 09:53:11;;;;;;;;;;;;;;;21.65;14.90;101077.59;4482200;31;35568;-62
2022/03/23 09:55:39;;;;;;;;;;;;;;;22.40;14.62;101072.66;4483372;31;35307;-62
2022/03/23 09:58:07;;;;;;;;;;;;;;;22.29;14.30;101067.50;4486279;31;34138;-62
2022/03/23 10:00:37;;;;;;;;;;;;;;;22.65;14.01;101065.50;4493079;31;33870;-62
2022/03/23 10:03:11;;;;;;;;;;;;;;;22.08;14.95;101065.06;4481084;31;33349;-63
2022/03/23 10:06:01;;;;;;;;;;;;;;;21.58;14.74;101069.19;4482534;31;34217;-62
2022/03/23 10:08:31;;;;;;;;;;;;;;;22.21;15.29;101057.34;4489998;31;35039;-64
2022/03/23 10:11:19;;;;;;;;;;;;;;;22.48;15.39;101056.38;4495539;31;32465;-64
2022/03/23 10:14:06;;;;;;;;;;;;;;;22.59;15.31;101059.84;4482842;31;33223;-64
2022/03/23 10:16:52;;;;;;;;;;;;;;;22.58;13.51;101052.69;4491279;31;33364;-64
2022/03/23 10:19:21;;;;;;;;;;;;;;;22.85;13.47;101059.81;4481381;31;34538;-65
2022/03/23 10:21:49;;;;;;;;;;;;;;;21.60;14.26;101055.41;4485707;31;33337;-62
2022/03/23 10:24:18;;;;;;;;;;;;;;;22.24;13.69;101043.41;4496047;31;32892;-63
2022/03/23 10:26:48;;;;;;;;;;;;;;;21.99;14.37;101045.06;4486747;31;34349;-62
2022/03/23 10:29:20;;;;;;;;;;;;;;;22.52;13.96;101044.13;4485121;31;35114;-65
2022/03/23 10:32:01;;;;;;;;;;;;;;;22.78;14.16;101030.44;4480700;31;32847;-63
2022/03/23 10:34:49;;;;;;;;;;;;;;;22.32;14.21;101043.47;4483348;31;34412;-63
2022/03/23 10:37:23;;;;;;;;;;;;;;;23.12;13.49;101029.63;4481872;31;34823;-64
2022/03/23 10:39:51;;;;;;;;;;;;;;;23.02;13.75;101031.62;4487566;31;33901;-64
2022/03/23 10:42:21;;;;;;;;;;;;;;;23.06;13.52;101024.81;4481890;31;33858;-64
2022/03/23 10:44:49;;;;;;;;;;;;;;;23.47;13.18;101020.31;4486903;31;34319;-64
2022/03/23 10:47:21;;;;;;;;;;;;;;;23.29;14.04;101014.13;4488191;31;34029;-65
2022/03/23 10:49:50;;;;;;;;;;;;;;;23.16;13.13;101013.75;4487692;31;35332;-64
2022/03/23 10:52:19;;;;;;;;;;;;;;;22.84;13.18;101012.56;4486673;31;33358;-63
2022/03/23 10:54:55;;;;;;;;;;;;;;;23.61;13.03;101007.03;4486583;31;35605;-64
2022/03/23 10:57:38;;;;;;;;;;;;;;;23.84;12.34;101010.81;4478885;31;32795;-65
2022/03/23 11:00:30;;;;;;;;;;;;;;;23.16;12.71;101008.28;4469523;31;34679;-64
2022/03/23 11:03:10;;;;;;;;;;;;;;;23.66;12.03;100999.19;4471660;31;34426;-64
2022/03/23 11:05:49;;;;;;;;;;;;;;;22.98;12.80;101000.19;4488953;31;33115;-64
2022/03/23 11:08:22;;;;;;;;;;;;;;;22.65;13.65;100994.56;4492305;31;33362;-64
2022/03/23 11:16:50;;;;;;;;;;;;;;;23.16;13.31;100981.81;4487811;31;33345;-62
2022/03/23 11:19:23;;;;;;;;;;;;;;;23.04;13.17;100985.03;4487958;31;33006;-64
2022/03/23 11:22:03;;;;;;;;;;;;;;;23.19;13.05;100984.22;4482944;31;33651;-63
2022/03/23 11:24:36;;;;;;;;;;;;;;;23.64;12.86;100973.88;4484843;31;33703;-63
2022/03/23 11:27:10;;;;;;;;;;;;;;;23.18;12.80;100982.53;4495092;31;33177;-62
2022/03/23 11:29:40;;;;;;;;;;;;;;;22.76;13.30;100967.00;4486907;31;35051;-63
2022/03/23 11:32:13;;;;;;;;;;;;;;;23.33;13.06;100960.84;4470510;32;33817;-65
2022/03/23 11:34:47;;;;;;;;;;;;;;;23.35;12.77;100964.28;4484807;31;33056;-64
2022/03/23 11:37:19;;;;;;;;;;;;;;;23.30;12.75;100958.47;4494250;31;35321;-64
2022/03/23 11:39:55;;;;;;;;;;;;;;;23.84;12.36;100953.41;4485703;31;34517;-65
2022/03/23 11:42:35;;;;;;;;;;;;;;;23.90;12.75;100957.34;4482749;31;32973;-63
2022/03/23 11:45:07;;;;;;;;;;;;;;;23.34;13.30;100945.31;4487652;31;32982;-65
2022/03/23 11:48:00;;;;;;;;;;;;;;;23.67;13.13;100946.22;4485143;31;34805;-65
2022/03/23 11:50:44;;;;;;;;;;;;;;;23.99;12.12;100944.53;4473407;32;34294;-65
2022/03/23 11:53:17;;;;;;;;;;;;;;;23.70;12.40;100938.56;4468551;31;34372;-64
2022/03/23 11:55:52;;;;;;;;;;;;;;;23.64;12.28;100939.22;4485675;31;33323;-64
2022/03/23 11:58:34;;;;;;;;;;;;;;;23.23;13.45;100928.25;4482647;31;34390;-65
2022/03/23 12:01:07;;;;;;;;;;;;;;;23.49;13.83;100924.50;4485999;31;34577;-64
2022/03/23 12:03:41;;;;;;;;;;;;;;;23.82;13.03;100914.47;4484989;31;33501;-63
2022/03/23 12:06:12;;;;;;;;;;;;;;;24.31;12.17;100911.63;4492799;31;34032;-66
2022/03/23 12:08:50;;;;;;;;;;;;;;;24.08;12.07;100914.25;4486369;31;34112;-64
2022/03/23 12:11:35;;;;;;;;;;;;;;;24.26;11.81;100908.53;4484163;31;34044;-64
2022/03/23 12:14:08;;;;;;;;;;;;;;;23.76;11.60;100900.66;4490120;31;34551;-64
2022/03/23 12:16:50;;;;;;;;;;;;;;;24.39;11.30;100902.53;4471342;32;32274;-64
2022/03/23 12:20:14;;;;;;;;;;;;;;;22.58;11.83;100908.09;4486821;31;34407;-66
2022/03/23 12:22:54;;;;;;;;;;;;;;;22.41;11.85;100894.37;4456628;31;33164;-64
2022/03/23 12:25:34;;;;;;;;;;;;;;;21.87;12.38;100894.56;4481361;31;33856;-64
2022/03/23 12:28:04;;;;;;;;;;;;;;;22.19;12.37;100882.16;4485577;31;33515;-64
2022/03/23 12:30:40;;;;;;;;;;;;;;;23.68;12.30;100883.19;4485867;31;34116;-66
2022/03/23 12:33:11;;;;;;;;;;;;;;;24.27;10.85;100873.84;4486985;31;34104;-64
2022/03/23 12:35:39;;;;;;;;;;;;;;;24.79;10.59;100870.56;4488011;31;34396;-65
2022/03/23 12:38:17;;;;;;;;;;;;;;;24.95;11.06;100875.09;4482471;31;33581;-66
2022/03/23 12:40:46;;;;;;;;;;;;;;;25.05;10.73;100862.00;4483341;31;34858;-65
2022/03/23 12:43:33;;;;;;;;;;;;;;;24.88;11.39;100855.78;4489482;31;34462;-64
2022/03/23 12:46:01;;;;;;;;;;;;;;;25.27;11.38;100863.91;4482197;31;34958;-64
2022/03/23 12:59:54;;;;;;;;;;;;;;;23.68;10.36;100855.00;4490700;31;32660;-62
2022/03/23 13:02:28;;;;;;;;;;;;;;;22.48;11.28;100846.31;4482492;31;33228;-62
2022/03/23 13:04:56;;;;;;;;;;;;;;;24.07;10.33;100855.09;4469271;31;34611;-61
2022/03/23 13:07:27;;;;;;;;;;;;;;;23.40;10.45;100849.91;4482578;31;33859;-62
2022/03/23 13:09:57;;;;;;;;;;;;;;;23.81;10.52;100838.94;4482093;31;34551;-62
2022/03/23 13:12:26;;;;;;;;;;;;;;;23.40;10.72;100833.53;4484656;31;33951;-62
2022/03/23 13:14:54;;;;;;;;;;;;;;;24.18;10.83;100834.75;4490928;31;33041;-62
2022/03/23 13:17:23;;;;;;;;;;;;;;;23.98;10.64;100833.41;4489005;31;34264;-62
2022/03/23 13:19:59;;;;;;;;;;;;;;;22.48;11.17;100826.38;4481700;31;32996;-61
2022/03/23 13:22:34;;;;;;;;;;;;;;;22.83;11.09;100828.00;4483960;31;34195;-62
2022/03/23 13:25:03;;;;;;;;;;;;;;;23.10;10.76;100818.66;4491979;31;34065;-61